sensor_id;sensor_type;location;lat;lon;timestamp;P1;durP1;ratioP1;P2;durP2;ratioP2
82920;SDS011;72696;52.372;9.722;2024-02-04T00:02:15;5.90;;;3.40;;
82920;SDS011;72696;52.372;9.722;2024-02-04T00:04:40;4.45;;;3.50;;
82920;SDS011;72696;52.372;9.722;2024-02-04T00:07:05;6.65;;;3.60;;
82920;SDS011;72696;52.372;9.722;2024-02-04T00:09:31;6.68;;;3.60;;
82920;SDS011;72696;52.372;9.722;2024-02-04T00:11:56;5.65;;;3.33;;
82920;SDS011;72696;52.372;9.722;2024-02-04T00:14:23;6.68;;;3.92;;
82920;SDS011;72696;52.372;9.722;2024-02-04T00:16:48;8.23;;;3.80;;
82920;SDS011;72696;52.372;9.722;2024-02-04T00:19:14;6.30;;;3.72;;
82920;SDS011;72696;52.372;9.722;2024-02-04T00:21:39;5.38;;;3.80;;
82920;SDS011;72696;52.372;9.722;2024-02-04T00:24:04;9.00;;;4.35;;
82920;SDS011;72696;52.372;9.722;2024-02-04T00:26:30;6.35;;;3.90;;
82920;SDS011;72696;52.372;9.722;2024-02-04T00:28:55;6.18;;;4.18;;
82920;SDS011;72696;52.372;9.722;2024-02-04T00:31:21;9.18;;;4.40;;
82920;SDS011;72696;52.372;9.722;2024-02-04T00:33:46;6.90;;;4.20;;
82920;SDS011;72696;52.372;9.722;2024-02-04T00:36:11;6.47;;;3.72;;
82920;SDS011;72696;52.372;9.722;2024-02-04T00:38:37;8.07;;;4.70;;
82920;SDS011;72696;52.372;9.722;2024-02-04T00:41:02;6.55;;;4.13;;
82920;SDS011;72696;52.372;9.722;2024-02-04T00:43:28;7.45;;;4.32;;
82920;SDS011;72696;52.372;9.722;2024-02-04T00:45:53;6.88;;;4.40;;
82920;SDS011;72696;52.372;9.722;2024-02-04T00:48:21;9.32;;;4.65;;
82920;SDS011;72696;52.372;9.722;2024-02-04T00:50:46;8.45;;;4.88;;
82920;SDS011;72696;52.372;9.722;2024-02-04T00:53:12;7.80;;;4.20;;
82920;SDS011;72696;52.372;9.722;2024-02-04T00:55:37;7.32;;;4.47;;
82920;SDS011;72696;52.372;9.722;2024-02-04T00:58:02;9.25;;;5.68;;
82920;SDS011;72696;52.372;9.722;2024-02-04T01:00:28;7.13;;;4.63;;
82920;SDS011;72696;52.372;9.722;2024-02-04T01:02:53;9.30;;;4.50;;
82920;SDS011;72696;52.372;9.722;2024-02-04T01:05:19;8.15;;;4.53;;
82920;SDS011;72696;52.372;9.722;2024-02-04T01:07:44;8.38;;;4.95;;
82920;SDS011;72696;52.372;9.722;2024-02-04T01:10:10;8.32;;;4.80;;
82920;SDS011;72696;52.372;9.722;2024-02-04T01:12:35;7.45;;;4.85;;
82920;SDS011;72696;52.372;9.722;2024-02-04T01:15:01;8.90;;;4.43;;
82920;SDS011;72696;52.372;9.722;2024-02-04T01:17:28;8.45;;;4.88;;
82920;SDS011;72696;52.372;9.722;2024-02-04T01:19:53;7.68;;;4.18;;
82920;SDS011;72696;52.372;9.722;2024-02-04T01:22:19;7.82;;;4.45;;
82920;SDS011;72696;52.372;9.722;2024-02-04T01:24:44;7.70;;;4.82;;
82920;SDS011;72696;52.372;9.722;2024-02-04T01:27:09;8.15;;;4.55;;
82920;SDS011;72696;52.372;9.722;2024-02-04T01:29:35;8.27;;;4.63;;
82920;SDS011;72696;52.372;9.722;2024-02-04T01:32:00;10.68;;;4.63;;
82920;SDS011;72696;52.372;9.722;2024-02-04T01:34:25;8.00;;;5.13;;
82920;SDS011;72696;52.372;9.722;2024-02-04T01:36:50;5.53;;;3.95;;
82920;SDS011;72696;52.372;9.722;2024-02-04T01:39:16;7.97;;;4.40;;
82920;SDS011;72696;52.372;9.722;2024-02-04T01:41:41;7.55;;;4.90;;
82920;SDS011;72696;52.372;9.722;2024-02-04T01:44:10;8.00;;;4.53;;
82920;SDS011;72696;52.372;9.722;2024-02-04T01:46:35;9.73;;;5.57;;
82920;SDS011;72696;52.372;9.722;2024-02-04T01:49:01;11.15;;;5.53;;
82920;SDS011;72696;52.372;9.722;2024-02-04T01:51:26;12.20;;;6.15;;
82920;SDS011;72696;52.372;9.722;2024-02-04T01:53:51;10.68;;;5.80;;
82920;SDS011;72696;52.372;9.722;2024-02-04T01:56:17;10.30;;;5.50;;
82920;SDS011;72696;52.372;9.722;2024-02-04T01:58:42;8.68;;;5.45;;
82920;SDS011;72696;52.372;9.722;2024-02-04T02:01:11;10.55;;;6.00;;
82920;SDS011;72696;52.372;9.722;2024-02-04T02:03:38;10.82;;;6.30;;
82920;SDS011;72696;52.372;9.722;2024-02-04T02:06:04;13.32;;;6.82;;
82920;SDS011;72696;52.372;9.722;2024-02-04T02:08:30;9.52;;;6.20;;
82920;SDS011;72696;52.372;9.722;2024-02-04T02:10:57;9.77;;;6.47;;
82920;SDS011;72696;52.372;9.722;2024-02-04T02:13:28;10.10;;;6.07;;
82920;SDS011;72696;52.372;9.722;2024-02-04T02:15:58;13.55;;;6.65;;
82920;SDS011;72696;52.372;9.722;2024-02-04T02:18:43;11.25;;;6.00;;
82920;SDS011;72696;52.372;9.722;2024-02-04T02:26:49;11.80;;;6.55;;
82920;SDS011;72696;52.372;9.722;2024-02-04T02:29:15;11.27;;;6.32;;
82920;SDS011;72696;52.372;9.722;2024-02-04T02:31:40;9.10;;;6.00;;
82920;SDS011;72696;52.372;9.722;2024-02-04T02:34:07;10.63;;;6.57;;
82920;SDS011;72696;52.372;9.722;2024-02-04T02:36:43;12.35;;;6.55;;
82920;SDS011;72696;52.372;9.722;2024-02-04T02:39:15;12.68;;;6.13;;
82920;SDS011;72696;52.372;9.722;2024-02-04T02:41:42;9.40;;;6.10;;
82920;SDS011;72696;52.372;9.722;2024-02-04T02:44:09;12.85;;;6.78;;
82920;SDS011;72696;52.372;9.722;2024-02-04T02:46:35;9.18;;;6.07;;
82920;SDS011;72696;52.372;9.722;2024-02-04T02:49:01;11.73;;;6.53;;
82920;SDS011;72696;52.372;9.722;2024-02-04T02:51:27;9.07;;;5.60;;
82920;SDS011;72696;52.372;9.722;2024-02-04T02:53:52;11.02;;;5.72;;
82920;SDS011;72696;52.372;9.722;2024-02-04T02:56:18;12.82;;;5.78;;
82920;SDS011;72696;52.372;9.722;2024-02-04T02:58:43;12.57;;;6.30;;
82920;SDS011;72696;52.372;9.722;2024-02-04T03:01:08;14.35;;;6.60;;
82920;SDS011;72696;52.372;9.722;2024-02-04T03:03:34;10.15;;;5.70;;
82920;SDS011;72696;52.372;9.722;2024-02-04T03:05:59;11.40;;;6.50;;
82920;SDS011;72696;52.372;9.722;2024-02-04T03:08:24;11.48;;;5.50;;
82920;SDS011;72696;52.372;9.722;2024-02-04T03:10:50;11.63;;;6.15;;
82920;SDS011;72696;52.372;9.722;2024-02-04T03:13:15;10.68;;;6.28;;
82920;SDS011;72696;52.372;9.722;2024-02-04T03:15:40;13.10;;;6.55;;
82920;SDS011;72696;52.372;9.722;2024-02-04T03:18:07;13.52;;;7.35;;
82920;SDS011;72696;52.372;9.722;2024-02-04T03:20:33;12.35;;;6.57;;
82920;SDS011;72696;52.372;9.722;2024-02-04T03:22:58;11.10;;;6.13;;
82920;SDS011;72696;52.372;9.722;2024-02-04T03:25:23;11.32;;;5.95;;
82920;SDS011;72696;52.372;9.722;2024-02-04T03:27:51;9.98;;;5.68;;
82920;SDS011;72696;52.372;9.722;2024-02-04T03:30:18;8.95;;;5.93;;
82920;SDS011;72696;52.372;9.722;2024-02-04T03:32:43;9.23;;;6.05;;
82920;SDS011;72696;52.372;9.722;2024-02-04T03:35:08;11.55;;;6.15;;
82920;SDS011;72696;52.372;9.722;2024-02-04T03:37:34;11.35;;;6.32;;
82920;SDS011;72696;52.372;9.722;2024-02-04T03:39:59;14.00;;;6.82;;
82920;SDS011;72696;52.372;9.722;2024-02-04T03:42:24;12.60;;;6.22;;
82920;SDS011;72696;52.372;9.722;2024-02-04T03:44:50;11.27;;;5.70;;
82920;SDS011;72696;52.372;9.722;2024-02-04T03:47:15;11.68;;;5.97;;
82920;SDS011;72696;52.372;9.722;2024-02-04T03:49:40;16.30;;;6.20;;
82920;SDS011;72696;52.372;9.722;2024-02-04T03:52:06;11.68;;;5.85;;
82920;SDS011;72696;52.372;9.722;2024-02-04T03:54:31;9.55;;;5.82;;
82920;SDS011;72696;52.372;9.722;2024-02-04T03:56:56;13.70;;;6.95;;
82920;SDS011;72696;52.372;9.722;2024-02-04T03:59:22;11.43;;;6.30;;
82920;SDS011;72696;52.372;9.722;2024-02-04T04:01:50;12.60;;;6.30;;
82920;SDS011;72696;52.372;9.722;2024-02-04T04:04:18;12.50;;;6.30;;
82920;SDS011;72696;52.372;9.722;2024-02-04T04:06:44;11.55;;;5.68;;
82920;SDS011;72696;52.372;9.722;2024-02-04T04:09:10;9.77;;;5.50;;
82920;SDS011;72696;52.372;9.722;2024-02-04T04:11:35;12.40;;;5.85;;
82920;SDS011;72696;52.372;9.722;2024-02-04T04:14:01;13.20;;;6.30;;
82920;SDS011;72696;52.372;9.722;2024-02-04T04:16:26;9.80;;;5.43;;
82920;SDS011;72696;52.372;9.722;2024-02-04T04:18:52;10.30;;;5.25;;
82920;SDS011;72696;52.372;9.722;2024-02-04T04:21:17;12.45;;;5.85;;
82920;SDS011;72696;52.372;9.722;2024-02-04T04:23:43;11.65;;;5.72;;
82920;SDS011;72696;52.372;9.722;2024-02-04T04:26:08;10.98;;;5.65;;
82920;SDS011;72696;52.372;9.722;2024-02-04T04:28:34;9.15;;;5.25;;
82920;SDS011;72696;52.372;9.722;2024-02-04T04:30:59;14.15;;;6.25;;
82920;SDS011;72696;52.372;9.722;2024-02-04T04:33:24;9.05;;;5.60;;
82920;SDS011;72696;52.372;9.722;2024-02-04T04:35:50;9.48;;;5.45;;
82920;SDS011;72696;52.372;9.722;2024-02-04T04:38:15;9.45;;;5.43;;
82920;SDS011;72696;52.372;9.722;2024-02-04T04:40:40;11.05;;;5.68;;
82920;SDS011;72696;52.372;9.722;2024-02-04T04:43:06;10.93;;;6.13;;
82920;SDS011;72696;52.372;9.722;2024-02-04T04:45:31;11.48;;;6.40;;
82920;SDS011;72696;52.372;9.722;2024-02-04T04:47:57;12.48;;;6.10;;
82920;SDS011;72696;52.372;9.722;2024-02-04T04:50:22;8.93;;;6.07;;
82920;SDS011;72696;52.372;9.722;2024-02-04T04:52:48;9.48;;;5.80;;
82920;SDS011;72696;52.372;9.722;2024-02-04T04:55:13;12.02;;;5.68;;
82920;SDS011;72696;52.372;9.722;2024-02-04T04:57:38;10.40;;;6.15;;
82920;SDS011;72696;52.372;9.722;2024-02-04T05:00:04;13.57;;;6.25;;
82920;SDS011;72696;52.372;9.722;2024-02-04T05:02:32;12.50;;;6.35;;
82920;SDS011;72696;52.372;9.722;2024-02-04T05:04:57;12.15;;;6.00;;
82920;SDS011;72696;52.372;9.722;2024-02-04T05:07:23;13.68;;;6.90;;
82920;SDS011;72696;52.372;9.722;2024-02-04T05:09:48;11.60;;;7.43;;
82920;SDS011;72696;52.372;9.722;2024-02-04T05:12:13;10.50;;;6.53;;
82920;SDS011;72696;52.372;9.722;2024-02-04T05:14:39;10.95;;;6.45;;
82920;SDS011;72696;52.372;9.722;2024-02-04T05:17:04;11.60;;;6.40;;
82920;SDS011;72696;52.372;9.722;2024-02-04T05:19:30;14.07;;;6.75;;
82920;SDS011;72696;52.372;9.722;2024-02-04T05:21:55;12.07;;;7.15;;
82920;SDS011;72696;52.372;9.722;2024-02-04T05:24:21;15.10;;;7.10;;
82920;SDS011;72696;52.372;9.722;2024-02-04T05:26:46;13.77;;;7.05;;
82920;SDS011;72696;52.372;9.722;2024-02-04T05:29:11;13.75;;;7.38;;
82920;SDS011;72696;52.372;9.722;2024-02-04T05:31:43;11.68;;;6.70;;
82920;SDS011;72696;52.372;9.722;2024-02-04T05:34:09;11.38;;;6.60;;
82920;SDS011;72696;52.372;9.722;2024-02-04T05:36:35;15.57;;;7.60;;
82920;SDS011;72696;52.372;9.722;2024-02-04T05:39:10;12.52;;;7.00;;
82920;SDS011;72696;52.372;9.722;2024-02-04T05:41:36;10.35;;;6.28;;
82920;SDS011;72696;52.372;9.722;2024-02-04T05:44:02;14.50;;;6.50;;
82920;SDS011;72696;52.372;9.722;2024-02-04T05:46:27;9.90;;;5.55;;
82920;SDS011;72696;52.372;9.722;2024-02-04T05:48:53;11.55;;;6.45;;
82920;SDS011;72696;52.372;9.722;2024-02-04T05:51:18;9.05;;;4.78;;
82920;SDS011;72696;52.372;9.722;2024-02-04T05:53:43;7.03;;;4.57;;
82920;SDS011;72696;52.372;9.722;2024-02-04T05:56:09;8.30;;;5.25;;
82920;SDS011;72696;52.372;9.722;2024-02-04T05:58:34;9.98;;;5.05;;
82920;SDS011;72696;52.372;9.722;2024-02-04T06:00:59;7.90;;;4.47;;
82920;SDS011;72696;52.372;9.722;2024-02-04T06:03:25;8.55;;;4.78;;
82920;SDS011;72696;52.372;9.722;2024-02-04T06:05:50;8.32;;;4.47;;
82920;SDS011;72696;52.372;9.722;2024-02-04T06:08:15;7.60;;;4.03;;
82920;SDS011;72696;52.372;9.722;2024-02-04T06:10:41;7.63;;;4.72;;
82920;SDS011;72696;52.372;9.722;2024-02-04T06:13:06;7.70;;;4.47;;
82920;SDS011;72696;52.372;9.722;2024-02-04T06:15:32;8.65;;;4.70;;
82920;SDS011;72696;52.372;9.722;2024-02-04T06:17:57;7.25;;;4.82;;
82920;SDS011;72696;52.372;9.722;2024-02-04T06:20:22;6.90;;;4.60;;
82920;SDS011;72696;52.372;9.722;2024-02-04T06:22:48;8.02;;;4.28;;
82920;SDS011;72696;52.372;9.722;2024-02-04T06:25:13;7.32;;;4.18;;
82920;SDS011;72696;52.372;9.722;2024-02-04T06:27:39;6.28;;;3.78;;
82920;SDS011;72696;52.372;9.722;2024-02-04T06:30:05;7.47;;;4.13;;
82920;SDS011;72696;52.372;9.722;2024-02-04T06:32:31;6.72;;;3.80;;
82920;SDS011;72696;52.372;9.722;2024-02-04T06:34:56;7.57;;;3.83;;
82920;SDS011;72696;52.372;9.722;2024-02-04T06:37:23;6.82;;;3.65;;
82920;SDS011;72696;52.372;9.722;2024-02-04T06:39:48;8.00;;;3.80;;
82920;SDS011;72696;52.372;9.722;2024-02-04T06:42:14;5.22;;;3.70;;
82920;SDS011;72696;52.372;9.722;2024-02-04T06:44:41;7.68;;;3.45;;
82920;SDS011;72696;52.372;9.722;2024-02-04T06:47:08;7.07;;;3.15;;
82920;SDS011;72696;52.372;9.722;2024-02-04T06:49:35;6.43;;;3.50;;
82920;SDS011;72696;52.372;9.722;2024-02-04T06:52:01;6.68;;;3.03;;
82920;SDS011;72696;52.372;9.722;2024-02-04T06:54:26;5.72;;;2.92;;
82920;SDS011;72696;52.372;9.722;2024-02-04T06:56:51;8.60;;;3.15;;
82920;SDS011;72696;52.372;9.722;2024-02-04T06:59:18;6.68;;;2.75;;
82920;SDS011;72696;52.372;9.722;2024-02-04T07:01:43;7.10;;;3.15;;
82920;SDS011;72696;52.372;9.722;2024-02-04T07:04:08;4.97;;;3.08;;
82920;SDS011;72696;52.372;9.722;2024-02-04T07:06:34;5.20;;;3.00;;
82920;SDS011;72696;52.372;9.722;2024-02-04T07:08:59;6.18;;;3.13;;
82920;SDS011;72696;52.372;9.722;2024-02-04T07:11:24;4.30;;;2.97;;
82920;SDS011;72696;52.372;9.722;2024-02-04T07:13:50;8.32;;;3.05;;
82920;SDS011;72696;52.372;9.722;2024-02-04T07:16:16;5.80;;;2.70;;
82920;SDS011;72696;52.372;9.722;2024-02-04T07:18:42;9.18;;;3.08;;
82920;SDS011;72696;52.372;9.722;2024-02-04T07:21:07;5.28;;;3.10;;
82920;SDS011;72696;52.372;9.722;2024-02-04T07:23:32;6.00;;;3.10;;
82920;SDS011;72696;52.372;9.722;2024-02-04T07:25:58;4.88;;;2.72;;
82920;SDS011;72696;52.372;9.722;2024-02-04T07:28:23;7.18;;;3.22;;
82920;SDS011;72696;52.372;9.722;2024-02-04T07:30:48;5.72;;;3.08;;
82920;SDS011;72696;52.372;9.722;2024-02-04T07:33:14;4.07;;;2.92;;
82920;SDS011;72696;52.372;9.722;2024-02-04T07:35:39;6.50;;;3.13;;
82920;SDS011;72696;52.372;9.722;2024-02-04T07:38:04;4.30;;;2.85;;
82920;SDS011;72696;52.372;9.722;2024-02-04T07:40:30;6.13;;;3.10;;
82920;SDS011;72696;52.372;9.722;2024-02-04T07:42:56;4.88;;;3.10;;
82920;SDS011;72696;52.372;9.722;2024-02-04T07:45:21;4.45;;;2.60;;
82920;SDS011;72696;52.372;9.722;2024-02-04T07:47:47;5.00;;;2.58;;
82920;SDS011;72696;52.372;9.722;2024-02-04T07:50:12;3.78;;;2.50;;
82920;SDS011;72696;52.372;9.722;2024-02-04T07:52:37;4.10;;;2.20;;
82920;SDS011;72696;52.372;9.722;2024-02-04T07:55:03;4.40;;;2.28;;
82920;SDS011;72696;52.372;9.722;2024-02-04T07:57:29;6.70;;;2.47;;
82920;SDS011;72696;52.372;9.722;2024-02-04T07:59:54;4.72;;;2.22;;
82920;SDS011;72696;52.372;9.722;2024-02-04T08:02:20;3.75;;;2.40;;
82920;SDS011;72696;52.372;9.722;2024-02-04T08:04:45;5.30;;;2.53;;
82920;SDS011;72696;52.372;9.722;2024-02-04T08:07:11;3.72;;;2.47;;
82920;SDS011;72696;52.372;9.722;2024-02-04T08:09:36;3.95;;;2.20;;
82920;SDS011;72696;52.372;9.722;2024-02-04T08:12:01;4.53;;;2.47;;
82920;SDS011;72696;52.372;9.722;2024-02-04T08:14:31;3.63;;;2.30;;
82920;SDS011;72696;52.372;9.722;2024-02-04T08:16:56;4.22;;;2.25;;
82920;SDS011;72696;52.372;9.722;2024-02-04T08:19:22;4.65;;;2.20;;
82920;SDS011;72696;52.372;9.722;2024-02-04T08:21:50;4.03;;;1.90;;
82920;SDS011;72696;52.372;9.722;2024-02-04T08:24:18;3.60;;;2.10;;
82920;SDS011;72696;52.372;9.722;2024-02-04T08:26:44;3.78;;;2.00;;
82920;SDS011;72696;52.372;9.722;2024-02-04T08:29:09;4.55;;;2.00;;
82920;SDS011;72696;52.372;9.722;2024-02-04T08:31:36;5.00;;;1.90;;
82920;SDS011;72696;52.372;9.722;2024-02-04T08:34:01;4.03;;;1.90;;
82920;SDS011;72696;52.372;9.722;2024-02-04T08:36:27;3.20;;;1.90;;
82920;SDS011;72696;52.372;9.722;2024-02-04T08:38:55;4.00;;;1.88;;
82920;SDS011;72696;52.372;9.722;2024-02-04T08:41:20;2.85;;;1.98;;
82920;SDS011;72696;52.372;9.722;2024-02-04T08:43:45;4.05;;;2.10;;
82920;SDS011;72696;52.372;9.722;2024-02-04T08:46:11;3.78;;;1.92;;
82920;SDS011;72696;52.372;9.722;2024-02-04T08:48:36;4.75;;;1.80;;
82920;SDS011;72696;52.372;9.722;2024-02-04T08:51:02;6.43;;;2.13;;
82920;SDS011;72696;52.372;9.722;2024-02-04T08:53:27;7.05;;;2.08;;
82920;SDS011;72696;52.372;9.722;2024-02-04T08:55:52;3.55;;;2.30;;
82920;SDS011;72696;52.372;9.722;2024-02-04T08:58:18;6.45;;;2.95;;
82920;SDS011;72696;52.372;9.722;2024-02-04T09:00:43;5.22;;;2.38;;
82920;SDS011;72696;52.372;9.722;2024-02-04T09:03:08;7.40;;;2.13;;
82920;SDS011;72696;52.372;9.722;2024-02-04T09:05:34;4.63;;;1.80;;
82920;SDS011;72696;52.372;9.722;2024-02-04T09:07:59;7.90;;;2.30;;
82920;SDS011;72696;52.372;9.722;2024-02-04T09:10:25;5.10;;;2.00;;
82920;SDS011;72696;52.372;9.722;2024-02-04T09:12:50;4.82;;;2.00;;
82920;SDS011;72696;52.372;9.722;2024-02-04T09:15:16;5.53;;;1.80;;
82920;SDS011;72696;52.372;9.722;2024-02-04T09:17:41;3.17;;;1.88;;
82920;SDS011;72696;52.372;9.722;2024-02-04T09:20:06;4.72;;;2.25;;
82920;SDS011;72696;52.372;9.722;2024-02-04T09:22:33;4.93;;;1.90;;
82920;SDS011;72696;52.372;9.722;2024-02-04T09:24:59;3.75;;;1.73;;
82920;SDS011;72696;52.372;9.722;2024-02-04T09:27:24;6.07;;;2.22;;
82920;SDS011;72696;52.372;9.722;2024-02-04T09:29:50;4.53;;;1.92;;
82920;SDS011;72696;52.372;9.722;2024-02-04T09:32:16;5.03;;;2.20;;
82920;SDS011;72696;52.372;9.722;2024-02-04T09:34:41;7.55;;;2.05;;
82920;SDS011;72696;52.372;9.722;2024-02-04T09:37:06;7.35;;;2.28;;
82920;SDS011;72696;52.372;9.722;2024-02-04T09:39:32;5.35;;;1.70;;
82920;SDS011;72696;52.372;9.722;2024-02-04T09:41:57;6.90;;;2.65;;
82920;SDS011;72696;52.372;9.722;2024-02-04T09:44:24;3.72;;;2.00;;
82920;SDS011;72696;52.372;9.722;2024-02-04T09:46:50;5.60;;;1.85;;
82920;SDS011;72696;52.372;9.722;2024-02-04T09:49:15;5.35;;;1.92;;
82920;SDS011;72696;52.372;9.722;2024-02-04T09:51:41;3.45;;;1.88;;
82920;SDS011;72696;52.372;9.722;2024-02-04T09:54:06;5.80;;;2.13;;
82920;SDS011;72696;52.372;9.722;2024-02-04T09:56:34;4.47;;;2.05;;
82920;SDS011;72696;52.372;9.722;2024-02-04T09:59:01;4.90;;;1.92;;
82920;SDS011;72696;52.372;9.722;2024-02-04T10:01:26;6.10;;;2.15;;
82920;SDS011;72696;52.372;9.722;2024-02-04T10:03:52;5.70;;;3.05;;
82920;SDS011;72696;52.372;9.722;2024-02-04T10:06:17;4.47;;;2.15;;
82920;SDS011;72696;52.372;9.722;2024-02-04T10:08:43;6.15;;;2.15;;
82920;SDS011;72696;52.372;9.722;2024-02-04T10:11:09;5.28;;;2.03;;
82920;SDS011;72696;52.372;9.722;2024-02-04T10:13:44;8.75;;;2.20;;
82920;SDS011;72696;52.372;9.722;2024-02-04T10:16:13;4.90;;;2.20;;
82920;SDS011;72696;52.372;9.722;2024-02-04T10:18:42;7.30;;;2.63;;
82920;SDS011;72696;52.372;9.722;2024-02-04T10:21:17;9.13;;;2.50;;
82920;SDS011;72696;52.372;9.722;2024-02-04T10:23:44;6.90;;;2.40;;
82920;SDS011;72696;52.372;9.722;2024-02-04T10:26:10;7.97;;;2.47;;
82920;SDS011;72696;52.372;9.722;2024-02-04T10:28:36;4.72;;;2.60;;
82920;SDS011;72696;52.372;9.722;2024-02-04T10:31:02;8.43;;;2.88;;
82920;SDS011;72696;52.372;9.722;2024-02-04T10:33:29;7.07;;;2.67;;
82920;SDS011;72696;52.372;9.722;2024-02-04T10:35:56;5.57;;;2.20;;
82920;SDS011;72696;52.372;9.722;2024-02-04T10:38:21;8.35;;;2.47;;
82920;SDS011;72696;52.372;9.722;2024-02-04T10:40:46;5.22;;;2.35;;
82920;SDS011;72696;52.372;9.722;2024-02-04T10:43:13;7.65;;;2.30;;
82920;SDS011;72696;52.372;9.722;2024-02-04T10:45:39;3.83;;;2.10;;
82920;SDS011;72696;52.372;9.722;2024-02-04T10:48:05;8.38;;;2.40;;
82920;SDS011;72696;52.372;9.722;2024-02-04T10:50:32;5.00;;;2.50;;
82920;SDS011;72696;52.372;9.722;2024-02-04T10:53:01;3.60;;;2.10;;
82920;SDS011;72696;52.372;9.722;2024-02-04T10:55:30;5.07;;;2.10;;
82920;SDS011;72696;52.372;9.722;2024-02-04T10:57:56;9.18;;;2.63;;
82920;SDS011;72696;52.372;9.722;2024-02-04T11:00:21;6.30;;;2.58;;
82920;SDS011;72696;52.372;9.722;2024-02-04T11:02:47;4.90;;;1.98;;
82920;SDS011;72696;52.372;9.722;2024-02-04T11:05:14;5.95;;;2.13;;
82920;SDS011;72696;52.372;9.722;2024-02-04T11:07:41;6.35;;;2.25;;
82920;SDS011;72696;52.372;9.722;2024-02-04T11:10:08;4.72;;;2.75;;
82920;SDS011;72696;52.372;9.722;2024-02-04T11:12:35;6.60;;;2.33;;
82920;SDS011;72696;52.372;9.722;2024-02-04T11:15:05;4.93;;;2.33;;
82920;SDS011;72696;52.372;9.722;2024-02-04T11:17:49;4.15;;;1.98;;
82920;SDS011;72696;52.372;9.722;2024-02-04T11:25:53;4.13;;;2.15;;
82920;SDS011;72696;52.372;9.722;2024-02-04T11:28:20;7.55;;;2.40;;
82920;SDS011;72696;52.372;9.722;2024-02-04T11:30:46;6.30;;;2.20;;
82920;SDS011;72696;52.372;9.722;2024-02-04T11:33:12;4.07;;;2.13;;
82920;SDS011;72696;52.372;9.722;2024-02-04T11:35:38;7.10;;;2.55;;
82920;SDS011;72696;52.372;9.722;2024-02-04T11:38:04;3.75;;;2.10;;
82920;SDS011;72696;52.372;9.722;2024-02-04T11:40:30;5.18;;;2.33;;
82920;SDS011;72696;52.372;9.722;2024-02-04T11:43:04;5.07;;;2.42;;
82920;SDS011;72696;52.372;9.722;2024-02-04T11:45:30;8.55;;;2.95;;
82920;SDS011;72696;52.372;9.722;2024-02-04T11:48:01;6.05;;;2.78;;
82920;SDS011;72696;52.372;9.722;2024-02-04T11:50:28;7.32;;;2.28;;
82920;SDS011;72696;52.372;9.722;2024-02-04T11:53:01;4.63;;;2.03;;
82920;SDS011;72696;52.372;9.722;2024-02-04T11:55:30;7.20;;;2.30;;
82920;SDS011;72696;52.372;9.722;2024-02-04T11:57:56;5.25;;;1.92;;
82920;SDS011;72696;52.372;9.722;2024-02-04T12:00:22;6.40;;;2.10;;
82920;SDS011;72696;52.372;9.722;2024-02-04T12:02:47;4.70;;;1.80;;
82920;SDS011;72696;52.372;9.722;2024-02-04T12:05:12;5.68;;;2.20;;
82920;SDS011;72696;52.372;9.722;2024-02-04T12:07:38;5.55;;;2.10;;
82920;SDS011;72696;52.372;9.722;2024-02-04T12:10:04;5.45;;;2.05;;
82920;SDS011;72696;52.372;9.722;2024-02-04T12:12:30;4.55;;;2.40;;
82920;SDS011;72696;52.372;9.722;2024-02-04T12:14:56;6.65;;;2.05;;
82920;SDS011;72696;52.372;9.722;2024-02-04T12:17:22;4.72;;;1.90;;
82920;SDS011;72696;52.372;9.722;2024-02-04T12:19:47;3.45;;;1.92;;
82920;SDS011;72696;52.372;9.722;2024-02-04T12:22:13;5.55;;;2.20;;
82920;SDS011;72696;52.372;9.722;2024-02-04T12:24:38;4.68;;;2.35;;
82920;SDS011;72696;52.372;9.722;2024-02-04T12:27:04;4.45;;;2.10;;
82920;SDS011;72696;52.372;9.722;2024-02-04T12:29:30;3.47;;;1.95;;
82920;SDS011;72696;52.372;9.722;2024-02-04T12:32:00;4.80;;;2.03;;
82920;SDS011;72696;52.372;9.722;2024-02-04T12:34:26;4.88;;;2.15;;
82920;SDS011;72696;52.372;9.722;2024-02-04T12:36:58;4.05;;;1.90;;
82920;SDS011;72696;52.372;9.722;2024-02-04T12:39:28;4.60;;;1.70;;
82920;SDS011;72696;52.372;9.722;2024-02-04T12:41:53;4.93;;;1.92;;
82920;SDS011;72696;52.372;9.722;2024-02-04T12:44:19;5.50;;;1.88;;
82920;SDS011;72696;52.372;9.722;2024-02-04T12:46:44;7.05;;;3.00;;
82920;SDS011;72696;52.372;9.722;2024-02-04T12:49:10;4.25;;;2.55;;
82920;SDS011;72696;52.372;9.722;2024-02-04T12:51:36;4.32;;;1.98;;
82920;SDS011;72696;52.372;9.722;2024-02-04T12:54:15;5.82;;;2.15;;
82920;SDS011;72696;52.372;9.722;2024-02-04T12:59:46;5.28;;;2.45;;
82920;SDS011;72696;52.372;9.722;2024-02-04T13:02:07;6.32;;;2.30;;
82920;SDS011;72696;52.372;9.722;2024-02-04T13:04:33;5.55;;;2.67;;
82920;SDS011;72696;52.372;9.722;2024-02-04T13:07:12;5.78;;;2.05;;
82920;SDS011;72696;52.372;9.722;2024-02-04T13:09:39;3.30;;;2.10;;
82920;SDS011;72696;52.372;9.722;2024-02-04T13:12:05;4.47;;;2.20;;
82920;SDS011;72696;52.372;9.722;2024-02-04T13:14:33;4.43;;;1.90;;
82920;SDS011;72696;52.372;9.722;2024-02-04T13:16:59;10.27;;;2.65;;
82920;SDS011;72696;52.372;9.722;2024-02-04T13:19:24;4.28;;;2.15;;
82920;SDS011;72696;52.372;9.722;2024-02-04T13:21:50;4.18;;;2.22;;
82920;SDS011;72696;52.372;9.722;2024-02-04T13:24:15;3.10;;;1.80;;
82920;SDS011;72696;52.372;9.722;2024-02-04T13:26:40;3.75;;;1.90;;
82920;SDS011;72696;52.372;9.722;2024-02-04T13:29:09;6.07;;;2.40;;
82920;SDS011;72696;52.372;9.722;2024-02-04T13:31:42;6.63;;;2.30;;
82920;SDS011;72696;52.372;9.722;2024-02-04T13:34:07;4.20;;;2.03;;
82920;SDS011;72696;52.372;9.722;2024-02-04T13:36:33;3.60;;;1.80;;
82920;SDS011;72696;52.372;9.722;2024-02-04T13:38:59;3.47;;;1.98;;
82920;SDS011;72696;52.372;9.722;2024-02-04T13:41:24;3.05;;;2.00;;
82920;SDS011;72696;52.372;9.722;2024-02-04T13:43:50;2.50;;;2.30;;
82920;SDS011;72696;52.372;9.722;2024-02-04T13:46:15;4.15;;;1.90;;
82920;SDS011;72696;52.372;9.722;2024-02-04T13:48:41;5.32;;;2.10;;
82920;SDS011;72696;52.372;9.722;2024-02-04T13:51:07;3.10;;;1.90;;
82920;SDS011;72696;52.372;9.722;2024-02-04T13:53:33;3.40;;;2.00;;
82920;SDS011;72696;52.372;9.722;2024-02-04T13:56:05;3.78;;;2.00;;
82920;SDS011;72696;52.372;9.722;2024-02-04T13:58:31;4.82;;;1.92;;
82920;SDS011;72696;52.372;9.722;2024-02-04T14:00:56;3.17;;;2.00;;
82920;SDS011;72696;52.372;9.722;2024-02-04T14:03:25;2.88;;;1.95;;
82920;SDS011;72696;52.372;9.722;2024-02-04T14:05:51;3.30;;;2.00;;
82920;SDS011;72696;52.372;9.722;2024-02-04T14:08:16;2.90;;;2.10;;
82920;SDS011;72696;52.372;9.722;2024-02-04T14:10:42;4.85;;;2.40;;
82920;SDS011;72696;52.372;9.722;2024-02-04T14:13:07;5.53;;;2.60;;
82920;SDS011;72696;52.372;9.722;2024-02-04T14:15:33;3.95;;;2.28;;
82920;SDS011;72696;52.372;9.722;2024-02-04T14:17:59;3.50;;;2.30;;
82920;SDS011;72696;52.372;9.722;2024-02-04T14:20:24;2.92;;;2.13;;
82920;SDS011;72696;52.372;9.722;2024-02-04T14:22:50;3.63;;;2.20;;
82920;SDS011;72696;52.372;9.722;2024-02-04T14:25:18;3.75;;;2.50;;
82920;SDS011;72696;52.372;9.722;2024-02-04T14:27:44;4.72;;;2.38;;
82920;SDS011;72696;52.372;9.722;2024-02-04T14:30:10;3.25;;;2.10;;
82920;SDS011;72696;52.372;9.722;2024-02-04T14:32:36;3.95;;;2.17;;
82920;SDS011;72696;52.372;9.722;2024-02-04T14:35:04;5.50;;;2.35;;
82920;SDS011;72696;52.372;9.722;2024-02-04T14:37:31;4.50;;;2.40;;
82920;SDS011;72696;52.372;9.722;2024-02-04T14:40:00;3.83;;;2.35;;
82920;SDS011;72696;52.372;9.722;2024-02-04T14:42:26;3.95;;;2.45;;
82920;SDS011;72696;52.372;9.722;2024-02-04T14:44:52;3.25;;;2.53;;
82920;SDS011;72696;52.372;9.722;2024-02-04T14:47:17;3.72;;;2.55;;
82920;SDS011;72696;52.372;9.722;2024-02-04T14:49:43;3.70;;;2.33;;
82920;SDS011;72696;52.372;9.722;2024-02-04T14:52:08;4.30;;;2.30;;
82920;SDS011;72696;52.372;9.722;2024-02-04T14:54:34;4.60;;;2.92;;